createdAt,value
2019-05-25T00:02:44.514Z,97315.09
2019-05-25T00:07:46.262Z,97310.91
2019-05-25T00:12:47.734Z,97313.22
2019-05-25T00:17:49.222Z,97314.14
2019-05-25T00:22:50.699Z,97315.44
2019-05-25T00:27:52.170Z,97321.36
2019-05-25T00:32:53.744Z,97321.94
2019-05-25T00:37:55.350Z,97321.84
2019-05-25T00:42:56.823Z,97319.09
2019-05-25T00:47:58.337Z,97315.00
2019-05-25T00:52:59.926Z,97314.23
2019-05-25T00:58:01.507Z,97313.21
2019-05-25T01:03:03.782Z,97308.05
2019-05-25T01:08:05.302Z,97305.89
2019-05-25T01:13:06.774Z,97309.32
2019-05-25T01:18:08.355Z,97305.13
2019-05-25T01:23:09.939Z,97305.75
2019-05-25T01:28:12.551Z,97308.09
2019-05-25T01:33:14.145Z,97306.41
2019-05-25T01:38:15.661Z,97308.50
2019-05-25T01:43:17.558Z,97301.95
2019-05-25T01:48:19.032Z,97300.92
2019-05-25T01:53:20.907Z,97302.20
2019-05-25T01:58:22.396Z,97303.58
2019-05-25T02:03:23.972Z,97301.38
2019-05-25T02:08:25.491Z,97304.53
2019-05-25T02:13:26.967Z,97307.19
2019-05-25T02:18:28.546Z,97306.69
2019-05-25T02:23:30.015Z,97305.66
2019-05-25T02:28:31.669Z,97297.95
2019-05-25T02:33:33.146Z,97305.24
2019-05-25T02:38:34.780Z,97321.80
2019-05-25T02:43:36.514Z,97323.26
2019-05-25T02:48:38.086Z,97326.61
2019-05-25T02:53:39.573Z,97327.41
2019-05-25T02:58:42.033Z,97327.41
2019-05-25T03:03:43.607Z,97336.34
2019-05-25T03:08:46.778Z,97335.37
2019-05-25T03:13:49.691Z,97332.71
2019-05-25T03:18:51.270Z,97340.03
2019-05-25T03:23:53.160Z,97347.50
2019-05-25T03:28:54.667Z,97347.52
2019-05-25T03:33:56.139Z,97349.12
2019-05-25T03:38:57.651Z,97358.00
2019-05-25T03:43:59.269Z,97359.04
2019-05-25T03:49:00.746Z,97357.45
2019-05-25T03:54:02.682Z,97359.52
2019-05-25T03:59:04.212Z,97367.55
2019-05-25T04:04:05.936Z,97366.84
2019-05-25T04:09:07.460Z,97370.13
2019-05-25T04:14:08.925Z,97362.69
2019-05-25T04:19:10.405Z,97367.52
2019-05-25T04:24:15.499Z,97372.22
2019-05-25T04:29:17.109Z,97371.59
2019-05-25T04:34:18.692Z,97369.13
2019-05-25T04:39:20.206Z,97369.34
2019-05-25T04:44:21.876Z,97382.78
2019-05-25T04:49:23.377Z,97381.61
2019-05-25T04:54:25.170Z,97389.44
2019-05-25T04:59:26.643Z,97394.28
2019-05-25T05:04:28.144Z,97394.42
2019-05-25T05:09:29.755Z,97402.00
2019-05-25T05:14:31.241Z,97401.30
2019-05-25T05:19:32.814Z,97406.08
2019-05-25T05:24:34.320Z,97420.19
2019-05-25T05:29:35.803Z,97413.42
2019-05-25T05:34:37.681Z,97425.37
2019-05-25T05:39:40.088Z,97431.20
2019-05-25T05:44:44.367Z,97424.59
2019-05-25T05:49:47.102Z,97424.19
2019-05-25T05:54:50.982Z,97421.22
2019-05-25T05:59:52.459Z,97422.27
2019-05-25T06:04:53.933Z,97423.45
2019-05-25T06:09:55.453Z,97421.59
2019-05-25T06:14:56.958Z,97418.56
2019-05-25T06:19:58.440Z,97423.67
2019-05-25T06:24:59.919Z,97429.94
2019-05-25T06:30:01.710Z,97420.83
2019-05-25T06:35:06.194Z,97428.89
2019-05-25T06:40:09.008Z,97440.70
2019-05-25T06:45:11.286Z,97437.19
2019-05-25T06:50:13.777Z,97443.43
2019-05-25T06:55:17.186Z,97444.28
2019-05-25T07:00:19.378Z,97452.14
2019-05-25T07:05:21.043Z,97451.62
2019-05-25T07:10:22.850Z,97452.50
2019-05-25T07:15:24.435Z,97447.66
2019-05-25T07:20:26.003Z,97452.14
2019-05-25T07:25:27.483Z,97439.20
2019-05-25T07:30:29.257Z,97446.48
2019-05-25T07:35:30.849Z,97451.31
2019-05-25T07:40:32.554Z,97455.37
2019-05-25T07:45:34.327Z,97460.05
2019-05-25T07:50:35.919Z,97458.59
2019-05-25T07:55:37.374Z,97459.11
2019-05-25T08:00:40.100Z,97467.65
2019-05-25T08:05:41.578Z,97462.35
2019-05-25T08:10:43.123Z,97470.51
2019-05-25T08:15:44.655Z,97470.77
2019-05-25T08:20:47.308Z,97464.87
2019-05-25T08:25:49.056Z,97466.85
2019-05-25T08:30:50.661Z,97465.84
2019-05-25T08:35:52.135Z,97469.64
2019-05-25T08:40:53.650Z,97469.39
2019-05-25T08:45:55.397Z,97467.47
2019-05-25T08:50:59.557Z,97464.64
2019-05-25T08:56:00.260Z,97484.56
2019-05-25T09:01:01.773Z,97475.76
2019-05-25T09:06:03.974Z,97477.13
2019-05-25T09:11:05.454Z,97477.78
2019-05-25T09:16:07.109Z,97476.83
2019-05-25T09:21:08.562Z,97481.46
2019-05-25T09:26:13.231Z,97483.99
2019-05-25T09:31:13.899Z,97479.66
2019-05-25T09:36:15.459Z,97480.14
2019-05-25T09:41:16.939Z,97480.14
2019-05-25T09:46:18.547Z,97481.61
2019-05-25T09:51:20.219Z,97488.88
2019-05-25T09:56:21.697Z,97484.31
2019-05-25T10:01:23.196Z,97492.85
2019-05-25T10:06:24.879Z,97492.22
2019-05-25T10:11:26.509Z,97494.10
2019-05-25T10:16:28.030Z,97492.02
2019-05-25T10:21:29.602Z,97492.12
2019-05-25T10:26:31.387Z,97501.04
2019-05-25T10:31:33.375Z,97495.34
2019-05-25T10:36:34.847Z,97496.17
2019-05-25T10:41:36.551Z,97488.79
2019-05-25T10:46:38.066Z,97493.69
2019-05-25T10:51:39.757Z,97490.01
2019-05-25T10:56:41.233Z,97488.63
2019-05-25T11:01:42.710Z,97489.55
2019-05-25T11:06:44.295Z,97477.77
2019-05-25T11:11:45.758Z,97473.81
2019-05-25T11:16:47.486Z,97468.69
2019-05-25T11:21:49.012Z,97477.82
2019-05-25T11:26:50.590Z,97479.62
2019-05-25T11:31:56.445Z,97476.31
2019-05-25T11:36:55.542Z,97476.00
2019-05-25T11:41:57.106Z,97477.41
2019-05-25T11:46:58.631Z,97473.55
2019-05-25T11:52:00.120Z,97469.54
2019-05-25T11:57:08.195Z,97469.37
2019-05-25T12:02:16.286Z,97460.80
2019-05-25T12:07:21.748Z,97458.67
2019-05-25T12:12:23.544Z,97451.23
2019-05-25T12:17:32.492Z,97447.62
2019-05-25T12:22:34.172Z,97451.81
2019-05-25T12:27:35.663Z,97446.95
2019-05-25T12:32:37.596Z,97444.09
2019-05-25T12:37:39.384Z,97445.23
2019-05-25T12:42:41.647Z,97450.09
2019-05-25T12:47:43.279Z,97445.77
2019-05-25T12:52:44.759Z,97438.55
2019-05-25T12:57:46.248Z,97436.61
2019-05-25T13:02:48.126Z,97431.65
2019-05-25T13:07:49.604Z,97427.72
2019-05-25T13:12:51.177Z,97426.55
2019-05-25T13:17:52.691Z,97425.19
2019-05-25T13:22:54.166Z,97416.70
2019-05-25T13:27:56.022Z,97419.36
2019-05-25T13:32:57.499Z,97422.52
2019-05-25T13:37:58.968Z,97414.12
2019-05-25T13:43:00.546Z,97414.27
2019-05-25T13:48:02.214Z,97412.23
2019-05-25T13:53:03.799Z,97408.03
2019-05-25T13:58:05.384Z,97412.16
2019-05-25T14:03:06.912Z,97416.92
2019-05-25T14:08:08.379Z,97408.75
2019-05-25T14:13:10.057Z,97403.95
2019-05-25T14:18:11.574Z,97404.31
2019-05-25T14:23:13.052Z,97410.27
2019-05-25T14:28:14.531Z,97400.36
2019-05-25T14:33:16.212Z,97395.56
2019-05-25T14:38:17.793Z,97395.26
2019-05-25T14:43:19.271Z,97386.91
2019-05-25T14:48:21.019Z,97379.06
2019-05-25T14:53:22.599Z,97373.70
2019-05-25T14:58:24.198Z,97369.22
2019-05-25T15:03:25.786Z,97379.96
2019-05-25T15:08:27.463Z,97376.91
2019-05-25T15:13:29.037Z,97377.96
2019-05-25T15:18:30.551Z,97379.61
2019-05-25T15:23:32.030Z,97384.84
2019-05-25T15:28:33.502Z,97388.89
2019-05-25T15:33:35.088Z,97391.44
2019-05-25T15:38:36.572Z,97386.76
2019-05-25T15:43:38.053Z,97390.99
2019-05-25T15:48:39.615Z,97395.39
2019-05-25T15:53:41.137Z,97393.62
2019-05-25T15:58:42.619Z,97395.58
2019-05-25T16:03:44.243Z,97390.72
2019-05-25T16:08:46.123Z,97386.44
2019-05-25T16:13:48.715Z,97382.02
2019-05-25T16:18:50.203Z,97386.94
2019-05-25T16:23:51.726Z,97382.88
2019-05-25T16:28:53.205Z,97391.47
2019-05-25T16:33:55.984Z,97384.38
2019-05-25T16:38:58.869Z,97385.44
2019-05-25T16:44:00.553Z,97385.75
2019-05-25T16:49:02.587Z,97388.01
2019-05-25T16:54:04.469Z,97388.18
2019-05-25T16:59:06.743Z,97399.09
2019-05-25T17:04:10.947Z,97392.03
2019-05-25T17:09:12.970Z,97385.63
2019-05-25T17:14:14.447Z,97382.39
2019-05-25T17:19:15.922Z,97390.11
2019-05-25T17:24:17.542Z,97386.42
2019-05-25T17:29:19.128Z,97384.08
2019-05-25T17:34:21.113Z,97389.70
2019-05-25T17:39:22.602Z,97390.55
2019-05-25T17:44:24.170Z,97395.09
2019-05-25T17:49:25.692Z,97393.63
2019-05-25T17:54:27.588Z,97399.33
2019-05-25T17:59:29.167Z,97407.34
2019-05-25T18:04:30.653Z,97408.34
2019-05-25T18:09:32.166Z,97404.63
2019-05-25T18:14:33.694Z,97413.48
2019-05-25T18:19:35.174Z,97405.33
2019-05-25T18:24:36.686Z,97408.57
2019-05-25T18:29:38.169Z,97411.17
2019-05-25T18:34:39.653Z,97412.93
2019-05-25T18:39:41.131Z,97412.47
2019-05-25T18:44:42.607Z,97417.56
2019-05-25T18:49:44.150Z,97424.63
2019-05-25T18:54:45.675Z,97427.22
2019-05-25T18:59:47.147Z,97432.59
2019-05-25T19:04:59.000Z,97432.59
2019-05-25T19:09:52.199Z,97433.25
2019-05-25T19:14:53.674Z,97434.89
2019-05-25T19:19:55.267Z,97443.55
2019-05-25T19:24:56.779Z,97453.27
2019-05-25T19:29:58.395Z,97455.13
2019-05-25T19:35:00.387Z,97453.42
2019-05-25T19:40:08.676Z,97448.05
2019-05-25T19:45:09.668Z,97445.74
2019-05-25T19:50:12.183Z,97455.13
2019-05-25T19:55:14.714Z,97463.86
2019-05-25T20:00:16.590Z,97449.17
2019-05-25T20:05:20.090Z,97454.94
2019-05-25T20:10:22.177Z,97450.79
2019-05-25T20:15:23.855Z,97454.72
2019-05-25T20:20:25.529Z,97462.84
2019-05-25T20:25:27.048Z,97473.13
2019-05-25T20:30:29.625Z,97473.03
2019-05-25T20:35:33.515Z,97472.58
2019-05-25T20:40:34.586Z,97471.11
2019-05-25T20:45:36.060Z,97472.12
2019-05-25T20:50:37.578Z,97478.20
2019-05-25T20:55:39.100Z,97480.38
2019-05-25T21:00:40.777Z,97477.37
2019-05-25T21:05:50.415Z,97484.58
2019-05-25T21:10:45.751Z,97489.94
2019-05-25T21:15:47.227Z,97486.58
2019-05-25T21:20:48.838Z,97492.94
2019-05-25T21:25:50.447Z,97494.63
2019-05-25T21:30:51.922Z,97492.30
2019-05-25T21:36:07.495Z,97489.12
2019-05-25T21:40:56.779Z,97494.31
2019-05-25T21:45:58.262Z,97497.98
2019-05-25T21:50:59.834Z,97500.19
2019-05-25T21:56:01.562Z,97505.38
2019-05-25T22:01:04.851Z,97501.37
2019-05-25T22:06:21.442Z,97490.84
2019-05-25T22:11:10.297Z,97486.96
2019-05-25T22:16:11.879Z,97505.88
2019-05-25T22:21:13.342Z,97504.71
2019-05-25T22:26:14.870Z,97504.72
2019-05-25T22:31:16.862Z,97501.70
2019-05-25T22:36:18.537Z,97501.05
2019-05-25T22:41:20.281Z,97498.69
2019-05-25T22:46:21.899Z,97504.55
2019-05-25T22:51:23.378Z,97498.38
2019-05-25T22:56:24.842Z,97492.68
2019-05-25T23:01:26.359Z,97498.85
2019-05-25T23:06:27.971Z,97493.33
2019-05-25T23:11:29.463Z,97488.33
2019-05-25T23:16:31.031Z,97478.97
2019-05-25T23:21:32.510Z,97473.23
2019-05-25T23:26:33.980Z,97467.20
2019-05-25T23:31:35.506Z,97478.39
2019-05-25T23:36:38.090Z,97486.23
2019-05-25T23:41:39.660Z,97492.23
2019-05-25T23:46:41.237Z,97486.93
2019-05-25T23:51:42.719Z,97490.45
2019-05-25T23:56:44.197Z,97492.67
